createdAt,value
2022-12-23T00:01:52.487Z,82.96
2022-12-23T00:04:19.715Z,82.95
2022-12-23T00:06:46.867Z,82.52
2022-12-23T00:09:14.048Z,81.97
2022-12-23T00:12:01.004Z,81.54
2022-12-23T00:14:46.643Z,81.07
2022-12-23T00:17:29.148Z,81.29
2022-12-23T00:19:56.184Z,81.91
2022-12-23T00:22:42.005Z,81.79
2022-12-23T00:25:09.464Z,81.51
2022-12-23T00:27:37.838Z,81.21
2022-12-23T00:30:08.501Z,81.48
2022-12-23T00:32:35.824Z,81.24
2022-12-23T00:35:02.821Z,80.93
2022-12-23T00:37:33.093Z,81.45
2022-12-23T00:40:18.582Z,81.28
2022-12-23T00:42:54.852Z,81.14
2022-12-23T00:45:22.239Z,80.39
2022-12-23T00:48:07.624Z,80.55
2022-12-23T00:50:38.152Z,80.68
2022-12-23T00:53:06.177Z,80.69
2022-12-23T00:55:33.214Z,81.24
2022-12-23T00:58:00.394Z,81.42
2022-12-23T01:00:45.782Z,81.39
2022-12-23T01:03:33.301Z,81.33
2022-12-23T01:06:01.603Z,81.32
2022-12-23T01:08:29.614Z,81.19
2022-12-23T01:10:56.660Z,80.94
2022-12-23T01:13:23.710Z,81.11
2022-12-23T01:15:50.679Z,81.50
2022-12-23T01:18:17.790Z,81.61
2022-12-23T01:20:45.111Z,81.52
2022-12-23T01:23:12.235Z,82.09
2022-12-23T01:25:39.203Z,81.72
2022-12-23T01:28:06.212Z,81.37
2022-12-23T01:30:33.208Z,81.33
2022-12-23T01:33:00.213Z,80.89
2022-12-23T01:35:27.264Z,80.40
2022-12-23T01:37:55.500Z,80.37
2022-12-23T01:40:22.448Z,80.30
2022-12-23T01:42:49.786Z,80.14
2022-12-23T01:45:21.063Z,80.33
2022-12-23T01:47:48.063Z,80.33
2022-12-23T01:50:28.059Z,80.53
2022-12-23T01:53:06.854Z,80.70
2022-12-23T01:55:42.536Z,80.78
2022-12-23T01:58:22.584Z,80.72
2022-12-23T02:01:08.223Z,80.65
2022-12-23T02:03:42.816Z,80.64
2022-12-23T02:06:52.858Z,80.61
2022-12-23T02:09:31.359Z,80.65
2022-12-23T02:11:58.309Z,80.63
2022-12-23T02:15:02.811Z,80.63
2022-12-23T02:17:45.885Z,80.68
2022-12-23T02:20:37.627Z,81.18
2022-12-23T02:23:55.615Z,81.22
2022-12-23T02:26:58.763Z,81.21
2022-12-23T02:29:31.637Z,81.67
2022-12-23T02:32:03.546Z,81.92
2022-12-23T02:34:41.099Z,81.98
2022-12-23T02:37:24.537Z,82.41
2022-12-23T02:39:55.266Z,82.24
2022-12-23T02:42:44.904Z,82.24
2022-12-23T02:45:14.145Z,82.17
2022-12-23T02:47:48.301Z,82.29
2022-12-23T02:50:21.872Z,82.44
2022-12-23T02:52:51.098Z,82.56
2022-12-23T02:55:24.018Z,82.90
2022-12-23T02:57:55.210Z,82.93
2022-12-23T03:00:23.376Z,83.25
2022-12-23T03:02:50.674Z,83.12
2022-12-23T03:05:25.714Z,83.33
2022-12-23T03:07:55.317Z,83.23
2022-12-23T03:10:42.659Z,83.01
2022-12-23T03:13:27.156Z,82.75
2022-12-23T03:16:03.260Z,82.80
2022-12-23T03:18:47.163Z,82.93
2022-12-23T03:21:32.082Z,83.03
2022-12-23T03:24:04.944Z,83.24
2022-12-23T03:26:42.831Z,83.02
2022-12-23T03:29:23.506Z,83.35
2022-12-23T03:31:52.862Z,83.29
2022-12-23T03:34:24.332Z,83.58
2022-12-23T03:36:59.135Z,83.55
2022-12-23T03:39:33.289Z,83.26
2022-12-23T03:42:07.967Z,83.24
2022-12-23T03:44:39.490Z,83.27
2022-12-23T03:47:23.799Z,83.15
2022-12-23T03:50:00.670Z,83.23
2022-12-23T03:52:32.480Z,83.36
2022-12-23T03:55:06.743Z,83.43
2022-12-23T03:57:52.617Z,83.89
2022-12-23T04:00:19.935Z,84.08
2022-12-23T04:03:09.619Z,84.21
2022-12-23T04:05:40.521Z,84.82
2022-12-23T04:08:16.598Z,84.60
2022-12-23T04:10:43.781Z,84.63
2022-12-23T04:13:10.844Z,84.46
2022-12-23T04:15:42.088Z,84.64
2022-12-23T04:18:10.629Z,84.12
2022-12-23T04:20:37.927Z,83.70
2022-12-23T04:23:05.622Z,83.52
2022-12-23T04:25:32.736Z,83.15
2022-12-23T04:27:59.706Z,83.10
2022-12-23T04:30:33.551Z,83.04
2022-12-23T04:33:01.781Z,82.98
2022-12-23T04:35:28.840Z,83.18
2022-12-23T04:37:55.986Z,83.32
2022-12-23T04:40:23.125Z,83.58
2022-12-23T04:42:50.377Z,83.69
2022-12-23T04:45:18.597Z,84.04
2022-12-23T04:47:45.750Z,84.44
2022-12-23T04:50:17.080Z,84.16
2022-12-23T04:52:44.601Z,84.07
2022-12-23T04:55:12.041Z,84.11
2022-12-23T04:57:39.179Z,84.34
2022-12-23T05:00:06.874Z,84.68
2022-12-23T05:02:35.118Z,84.93
2022-12-23T05:05:02.394Z,84.74
2022-12-23T05:07:29.438Z,84.90
2022-12-23T05:10:02.361Z,84.70
2022-12-23T05:12:31.009Z,84.70
2022-12-23T05:14:58.056Z,84.56
2022-12-23T05:17:25.177Z,84.08
2022-12-23T05:19:52.140Z,84.10
2022-12-23T05:22:19.349Z,83.97
2022-12-23T05:24:46.320Z,83.66
2022-12-23T05:27:13.441Z,83.75
2022-12-23T05:29:40.583Z,83.47
2022-12-23T05:32:08.237Z,83.18
2022-12-23T05:34:35.317Z,82.95
2022-12-23T05:37:02.505Z,82.81
2022-12-23T05:39:29.737Z,83.05
2022-12-23T05:41:56.803Z,83.48
2022-12-23T05:44:24.037Z,83.63
2022-12-23T05:46:51.026Z,83.29
2022-12-23T05:49:18.090Z,83.23
2022-12-23T05:51:45.216Z,83.29
2022-12-23T05:54:12.219Z,83.04
2022-12-23T05:56:39.326Z,82.97
2022-12-23T05:59:06.320Z,82.99
2022-12-23T06:01:33.729Z,84.00
2022-12-23T06:04:00.999Z,84.53
2022-12-23T06:06:28.209Z,84.58
2022-12-23T06:08:59.545Z,84.43
2022-12-23T06:11:28.098Z,83.96
2022-12-23T06:13:55.092Z,84.45
2022-12-23T06:16:22.419Z,83.68
2022-12-23T06:18:49.627Z,83.08
2022-12-23T06:21:16.890Z,82.76
2022-12-23T06:23:43.915Z,82.75
2022-12-23T06:26:10.979Z,82.49
2022-12-23T06:28:38.076Z,82.46
2022-12-23T06:31:05.324Z,81.72
2022-12-23T06:33:32.267Z,81.15
2022-12-23T06:35:59.343Z,81.15
2022-12-23T06:38:26.328Z,80.99
2022-12-23T06:40:53.631Z,81.21
2022-12-23T06:43:20.716Z,81.06
2022-12-23T06:45:48.976Z,81.26
2022-12-23T06:48:16.849Z,81.38
2022-12-23T06:50:44.825Z,81.17
2022-12-23T06:53:11.922Z,80.99
2022-12-23T06:55:39.024Z,80.21
2022-12-23T06:58:06.368Z,78.60
2022-12-23T07:00:33.591Z,78.22
2022-12-23T07:03:00.858Z,78.41
2022-12-23T07:05:34.900Z,78.63
2022-12-23T07:08:04.021Z,78.66
2022-12-23T07:10:31.034Z,78.71
2022-12-23T07:12:58.078Z,78.66
2022-12-23T07:15:25.132Z,78.81
2022-12-23T07:17:52.139Z,78.77
2022-12-23T07:20:19.394Z,78.58
2022-12-23T07:22:46.560Z,78.27
2022-12-23T07:25:13.807Z,78.01
2022-12-23T07:27:40.944Z,77.44
2022-12-23T07:30:08.862Z,77.46
2022-12-23T07:32:35.923Z,76.88
2022-12-23T07:35:03.128Z,77.39
2022-12-23T07:37:30.391Z,77.32
2022-12-23T07:39:57.529Z,77.95
2022-12-23T07:42:44.018Z,78.27
2022-12-23T07:45:11.822Z,76.78
2022-12-23T07:47:38.913Z,76.15
2022-12-23T07:50:08.101Z,76.84
2022-12-23T07:52:35.253Z,73.24
2022-12-23T07:55:02.480Z,73.44
2022-12-23T07:57:29.701Z,73.07
2022-12-23T07:59:56.965Z,72.87
2022-12-23T08:02:25.516Z,72.56
2022-12-23T08:04:52.928Z,72.21
2022-12-23T08:07:19.917Z,73.23
2022-12-23T08:09:47.008Z,75.02
2022-12-23T08:12:14.036Z,74.88
2022-12-23T08:14:41.093Z,74.73
2022-12-23T08:17:08.738Z,74.29
2022-12-23T08:19:37.578Z,74.29
2022-12-23T08:22:04.698Z,75.54
2022-12-23T08:24:31.743Z,75.36
2022-12-23T08:26:58.917Z,75.02
2022-12-23T08:29:28.878Z,75.13
2022-12-23T08:31:58.461Z,74.11
2022-12-23T08:34:25.946Z,74.47
2022-12-23T08:36:53.102Z,73.99
2022-12-23T08:39:20.305Z,73.01
2022-12-23T08:41:48.480Z,72.88
2022-12-23T08:44:17.158Z,72.10
2022-12-23T08:46:45.070Z,70.57
2022-12-23T08:49:12.325Z,70.36
2022-12-23T08:51:39.982Z,70.06
2022-12-23T08:54:07.471Z,70.91
2022-12-23T08:56:39.082Z,70.27
2022-12-23T08:59:07.376Z,68.84
2022-12-23T09:01:35.621Z,68.16
2022-12-23T09:04:05.592Z,67.87
2022-12-23T09:06:36.649Z,67.82
2022-12-23T09:09:05.067Z,67.34
2022-12-23T09:11:33.132Z,66.88
2022-12-23T09:14:01.229Z,66.33
2022-12-23T09:16:29.922Z,63.67
2022-12-23T09:18:57.926Z,63.40
2022-12-23T09:21:25.296Z,63.03
2022-12-23T09:23:52.762Z,63.58
2022-12-23T09:26:26.181Z,62.87
2022-12-23T09:28:53.709Z,62.19
2022-12-23T09:31:22.127Z,61.91
2022-12-23T09:33:51.551Z,61.83
2022-12-23T09:36:18.678Z,65.20
2022-12-23T09:38:45.744Z,65.70
2022-12-23T09:41:32.498Z,63.32
2022-12-23T09:44:32.067Z,63.83
2022-12-23T09:47:03.466Z,64.32
2022-12-23T09:49:34.118Z,63.85
2022-12-23T09:52:05.437Z,63.64
2022-12-23T09:54:42.577Z,63.89
2022-12-23T09:57:36.510Z,64.71
2022-12-23T10:00:15.809Z,64.98
2022-12-23T10:03:16.652Z,65.10
2022-12-23T10:06:04.215Z,65.33
2022-12-23T10:08:43.263Z,63.62
2022-12-23T10:11:26.136Z,61.08
2022-12-23T10:14:01.897Z,61.85
2022-12-23T10:16:41.691Z,62.84
2022-12-23T10:19:32.349Z,63.32
2022-12-23T10:22:04.604Z,64.08
2022-12-23T10:24:42.125Z,62.92
2022-12-23T10:27:20.125Z,62.97
2022-12-23T10:29:47.179Z,63.90
2022-12-23T10:32:40.420Z,63.79
2022-12-23T10:35:45.855Z,62.52
2022-12-23T10:38:30.509Z,61.55
2022-12-23T10:41:41.993Z,61.80
2022-12-23T10:44:46.253Z,61.00
2022-12-23T10:47:25.219Z,61.02
2022-12-23T10:50:17.252Z,60.23
2022-12-23T10:52:47.877Z,58.36
2022-12-23T10:55:33.506Z,60.13
2022-12-23T10:58:09.987Z,56.97
2022-12-23T11:00:41.259Z,60.88
2022-12-23T11:03:20.230Z,60.98
2022-12-23T11:05:50.535Z,62.07
2022-12-23T11:08:18.925Z,63.07
2022-12-23T11:10:46.660Z,64.34
2022-12-23T11:13:32.403Z,65.38
2022-12-23T11:16:17.818Z,66.28
2022-12-23T11:18:56.715Z,66.52
2022-12-23T11:21:24.014Z,64.49
2022-12-23T11:24:18.626Z,64.87
2022-12-23T11:26:49.762Z,64.91
2022-12-23T11:29:28.028Z,64.66
2022-12-23T11:31:56.488Z,65.64
2022-12-23T11:34:27.391Z,64.54
2022-12-23T11:37:05.474Z,64.47
2022-12-23T11:39:37.124Z,65.17
2022-12-23T11:42:06.849Z,63.58
2022-12-23T11:44:43.887Z,63.47
2022-12-23T11:47:29.409Z,61.92
2022-12-23T11:49:59.563Z,62.94
2022-12-23T11:52:30.230Z,61.92
2022-12-23T11:55:01.045Z,62.07
2022-12-23T11:57:48.829Z,61.56
2022-12-23T12:00:21.286Z,59.66
2022-12-23T12:02:55.251Z,58.94
2022-12-23T12:05:38.603Z,58.06
2022-12-23T12:08:21.515Z,56.87
2022-12-23T12:10:52.955Z,57.04
2022-12-23T12:13:31.177Z,56.48
2022-12-23T12:16:17.430Z,56.99
2022-12-23T12:18:52.088Z,57.19
2022-12-23T12:21:26.329Z,56.80
2022-12-23T12:24:17.085Z,57.37
2022-12-23T12:26:51.440Z,58.06
2022-12-23T12:29:45.453Z,58.48
2022-12-23T12:32:34.071Z,58.24
2022-12-23T12:35:06.758Z,59.18
2022-12-23T12:37:41.152Z,59.51
2022-12-23T12:40:37.301Z,59.83
2022-12-23T12:43:24.444Z,59.29
2022-12-23T12:46:00.807Z,61.36
2022-12-23T12:48:49.501Z,62.20
2022-12-23T12:51:26.407Z,61.11
2022-12-23T12:54:04.678Z,60.55
2022-12-23T12:56:57.393Z,60.36
2022-12-23T12:59:36.741Z,60.36
2022-12-23T13:02:25.671Z,60.93
2022-12-23T13:05:20.937Z,61.74
2022-12-23T13:08:21.974Z,61.72
2022-12-23T13:11:30.529Z,62.06
2022-12-23T13:14:20.959Z,63.18
2022-12-23T13:17:03.710Z,63.92
2022-12-23T13:19:46.807Z,63.18
2022-12-23T13:22:23.052Z,62.37
2022-12-23T13:25:03.629Z,61.95
2022-12-23T13:28:08.275Z,61.08
2022-12-23T13:31:19.786Z,60.09
2022-12-23T13:34:10.287Z,58.93
2022-12-23T13:37:12.735Z,58.82
2022-12-23T13:40:07.863Z,57.66
2022-12-23T13:42:41.331Z,57.62
2022-12-23T13:45:15.507Z,57.46
2022-12-23T13:48:05.828Z,57.14
2022-12-23T13:50:53.656Z,55.19
2022-12-23T13:53:51.040Z,55.12
2022-12-23T13:56:34.916Z,54.59
2022-12-23T13:59:02.117Z,53.91
2022-12-23T14:01:40.790Z,54.67
2022-12-23T14:04:32.485Z,54.88
2022-12-23T14:07:04.308Z,55.96
2022-12-23T14:09:39.259Z,56.27
2022-12-23T14:12:41.220Z,56.74
2022-12-23T14:15:28.384Z,55.69
2022-12-23T14:18:04.961Z,56.13
2022-12-23T14:21:06.207Z,57.31
2022-12-23T14:23:44.944Z,56.96
2022-12-23T14:26:17.822Z,56.63
2022-12-23T14:29:35.052Z,56.91
2022-12-23T14:32:03.765Z,56.99
2022-12-23T14:34:33.696Z,56.98
2022-12-23T14:37:17.545Z,58.06
2022-12-23T14:39:46.004Z,60.17
2022-12-23T14:42:33.496Z,62.87
2022-12-23T14:45:36.045Z,64.67
2022-12-23T14:48:37.158Z,65.87
2022-12-23T14:51:29.731Z,66.11
2022-12-23T14:54:00.760Z,66.55
2022-12-23T14:56:31.778Z,66.83
2022-12-23T14:59:18.921Z,67.98
2022-12-23T15:01:55.399Z,69.50
2022-12-23T15:04:29.241Z,67.27
2022-12-23T15:07:06.719Z,66.79
2022-12-23T15:10:00.477Z,66.57
2022-12-23T15:12:34.455Z,67.12
2022-12-23T15:15:27.028Z,67.75
2022-12-23T15:18:13.454Z,68.32
2022-12-23T15:20:42.747Z,68.56
2022-12-23T15:23:15.125Z,68.71
2022-12-23T15:25:49.112Z,69.64
2022-12-23T15:28:21.802Z,69.89
2022-12-23T15:30:56.802Z,69.95
2022-12-23T15:34:01.471Z,70.05
2022-12-23T15:36:27.598Z,70.33
2022-12-23T15:38:54.937Z,70.68
2022-12-23T15:41:22.813Z,70.35
2022-12-23T15:43:50.956Z,69.78
2022-12-23T15:46:29.371Z,69.31
2022-12-23T15:48:58.217Z,69.26
2022-12-23T15:54:37.002Z,69.39
2022-12-23T15:57:04.813Z,69.19
2022-12-23T15:59:35.310Z,69.31
2022-12-23T16:05:31.108Z,68.67
2022-12-23T16:08:31.638Z,68.55
2022-12-23T16:11:15.274Z,68.45
2022-12-23T16:13:58.509Z,67.97
2022-12-23T16:16:41.406Z,67.17
2022-12-23T16:19:39.247Z,66.84
2022-12-23T16:22:30.956Z,66.78
2022-12-23T16:25:04.170Z,66.57
2022-12-23T16:27:34.312Z,66.83
2022-12-23T16:30:04.547Z,66.77
2022-12-23T16:32:31.925Z,67.23
2022-12-23T16:35:13.303Z,66.99
2022-12-23T16:37:49.249Z,66.77
2022-12-23T16:40:20.638Z,66.89
2022-12-23T16:42:51.152Z,66.96
2022-12-23T16:45:18.352Z,66.58
2022-12-23T16:47:45.585Z,66.21
2022-12-23T16:50:16.267Z,65.60
2022-12-23T16:52:43.678Z,65.41
2022-12-23T16:55:19.215Z,65.39
2022-12-23T16:57:46.246Z,65.08
2022-12-23T17:00:16.180Z,65.52
2022-12-23T17:02:44.821Z,65.29
2022-12-23T17:05:17.141Z,65.67
2022-12-23T17:07:45.703Z,65.57
2022-12-23T17:10:15.537Z,65.41
2022-12-23T17:12:43.964Z,65.58
2022-12-23T17:15:18.921Z,66.27
2022-12-23T17:17:46.366Z,66.48
2022-12-23T17:20:13.816Z,66.80
2022-12-23T17:22:43.945Z,66.88
2022-12-23T17:25:18.836Z,67.18
2022-12-23T17:27:50.270Z,67.23
2022-12-23T17:30:20.938Z,67.05
2022-12-23T17:33:00.848Z,66.42
2022-12-23T17:35:28.354Z,65.79
2022-12-23T17:37:55.477Z,65.41
2022-12-23T17:40:22.724Z,65.54
2022-12-23T17:42:49.878Z,64.99
2022-12-23T17:45:26.331Z,65.04
2022-12-23T17:47:53.951Z,65.02
2022-12-23T17:50:21.189Z,65.51
2022-12-23T17:52:48.764Z,65.83
2022-12-23T17:55:23.067Z,66.23
2022-12-23T17:57:50.963Z,66.51
2022-12-23T18:00:29.780Z,66.62
2022-12-23T18:03:01.067Z,67.11
2022-12-23T18:05:31.153Z,67.47
2022-12-23T18:08:00.471Z,67.43
2022-12-23T18:10:31.029Z,67.42
2022-12-23T18:13:03.041Z,67.79
2022-12-23T18:15:42.185Z,68.07
2022-12-23T18:18:19.098Z,68.55
2022-12-23T18:20:53.401Z,69.30
2022-12-23T18:23:31.710Z,69.65
2022-12-23T18:25:59.801Z,70.04
2022-12-23T18:28:27.644Z,69.83
2022-12-23T18:30:58.652Z,69.96
2022-12-23T18:33:28.926Z,70.18
2022-12-23T18:35:56.519Z,70.59
2022-12-23T18:38:23.640Z,70.66
2022-12-23T18:40:54.115Z,70.99
2022-12-23T18:43:24.719Z,70.76
2022-12-23T18:45:54.093Z,70.83
2022-12-23T18:48:21.877Z,70.84
2022-12-23T18:50:49.167Z,70.94
2022-12-23T18:53:25.156Z,70.99
2022-12-23T18:55:54.247Z,71.14
2022-12-23T18:58:22.304Z,71.21
2022-12-23T19:00:51.090Z,71.17
2022-12-23T19:03:26.919Z,71.46
2022-12-23T19:05:55.893Z,71.53
2022-12-23T19:08:27.717Z,71.79
2022-12-23T19:10:55.904Z,71.86
2022-12-23T19:13:23.190Z,72.10
2022-12-23T19:15:50.787Z,72.05
2022-12-23T19:18:20.055Z,72.00
2022-12-23T19:20:48.652Z,71.90
2022-12-23T19:23:16.649Z,71.80
2022-12-23T19:25:52.611Z,71.46
2022-12-23T19:28:22.727Z,71.80
2022-12-23T19:30:50.227Z,71.91
2022-12-23T19:33:17.269Z,71.39
2022-12-23T19:35:46.030Z,71.51
2022-12-23T19:38:13.035Z,71.52
2022-12-23T19:40:40.622Z,71.90
2022-12-23T19:43:08.281Z,71.81
2022-12-23T19:45:35.502Z,71.66
2022-12-23T19:48:02.568Z,72.05
2022-12-23T19:50:29.634Z,72.14
2022-12-23T19:52:57.533Z,71.97
2022-12-23T19:55:24.685Z,71.82
2022-12-23T19:57:52.407Z,72.01
2022-12-23T20:00:19.817Z,72.12
2022-12-23T20:02:46.866Z,72.30
2022-12-23T20:05:14.019Z,72.36
2022-12-23T20:07:40.964Z,71.99
2022-12-23T20:10:08.655Z,71.95
2022-12-23T20:12:35.701Z,72.28
2022-12-23T20:15:02.952Z,72.52
2022-12-23T20:17:30.003Z,73.10
2022-12-23T20:19:57.628Z,73.15
2022-12-23T20:22:24.683Z,73.00
2022-12-23T20:24:51.697Z,73.31
2022-12-23T20:27:24.259Z,73.33
2022-12-23T20:29:55.001Z,73.70
2022-12-23T20:32:22.062Z,73.95
2022-12-23T20:34:50.426Z,73.81
2022-12-23T20:37:17.768Z,73.98
2022-12-23T20:39:45.012Z,73.93
2022-12-23T20:42:12.046Z,73.90
2022-12-23T20:44:39.224Z,74.40
2022-12-23T20:47:06.588Z,74.26
2022-12-23T20:49:33.712Z,74.40
2022-12-23T20:52:01.258Z,74.43
2022-12-23T20:54:33.426Z,74.45
2022-12-23T20:57:01.983Z,74.57
2022-12-23T20:59:29.336Z,74.57
2022-12-23T21:01:59.556Z,74.76
2022-12-23T21:04:27.458Z,74.72
2022-12-23T21:06:54.605Z,74.55
2022-12-23T21:09:21.854Z,74.90
2022-12-23T21:11:48.857Z,74.64
2022-12-23T21:14:16.533Z,74.60
2022-12-23T21:16:43.955Z,74.46
2022-12-23T21:19:22.569Z,74.82
2022-12-23T21:21:50.722Z,75.13
2022-12-23T21:24:18.856Z,75.59
2022-12-23T21:26:55.212Z,75.28
2022-12-23T21:29:23.391Z,75.54
2022-12-23T21:31:50.567Z,75.63
2022-12-23T21:34:18.226Z,76.04
2022-12-23T21:36:45.291Z,76.22
2022-12-23T21:39:16.366Z,76.38
2022-12-23T21:41:43.722Z,76.02
2022-12-23T21:44:13.671Z,76.05
2022-12-23T21:46:40.884Z,76.13
2022-12-23T21:49:07.940Z,76.16
2022-12-23T21:51:40.225Z,76.10
2022-12-23T21:54:10.495Z,76.02
2022-12-23T21:56:38.580Z,75.90
2022-12-23T21:59:12.039Z,75.97
2022-12-23T22:01:38.974Z,75.88
2022-12-23T22:04:06.252Z,76.31
2022-12-23T22:06:38.678Z,75.85
2022-12-23T22:09:07.470Z,76.21
2022-12-23T22:11:36.454Z,76.07
2022-12-23T22:14:05.336Z,76.40
2022-12-23T22:16:33.577Z,75.99
2022-12-23T22:19:01.985Z,75.85
2022-12-23T22:21:30.782Z,75.40
2022-12-23T22:23:58.748Z,75.25
2022-12-23T22:26:30.447Z,75.26
2022-12-23T22:29:00.103Z,75.17
2022-12-23T22:31:40.701Z,75.82
2022-12-23T22:34:09.313Z,76.00
2022-12-23T22:36:36.758Z,76.31
2022-12-23T22:39:05.334Z,76.59
2022-12-23T22:41:34.102Z,76.55
2022-12-23T22:44:01.357Z,76.82
2022-12-23T22:46:29.361Z,76.73
2022-12-23T22:48:56.722Z,76.89
2022-12-23T22:51:29.403Z,76.95
2022-12-23T22:53:57.062Z,76.93
2022-12-23T22:56:25.539Z,77.07
2022-12-23T22:58:53.307Z,77.39
2022-12-23T23:01:22.608Z,77.76
2022-12-23T23:03:56.930Z,77.47
2022-12-23T23:06:37.804Z,77.58
2022-12-23T23:09:12.580Z,77.89
2022-12-23T23:11:39.859Z,77.88
2022-12-23T23:14:07.190Z,77.64
2022-12-23T23:16:34.536Z,77.22
2022-12-23T23:19:03.854Z,76.85
2022-12-23T23:21:31.663Z,76.88
2022-12-23T23:23:58.798Z,76.79
2022-12-23T23:26:27.529Z,76.68
2022-12-23T23:28:55.528Z,76.82
2022-12-23T23:34:09.856Z,76.16
2022-12-23T23:36:36.895Z,76.31
2022-12-23T23:39:04.325Z,76.36
2022-12-23T23:41:31.329Z,76.75
2022-12-23T23:43:58.435Z,76.76
2022-12-23T23:46:25.498Z,77.12
2022-12-23T23:48:52.699Z,77.34
2022-12-23T23:51:19.670Z,77.21
2022-12-23T23:53:46.853Z,77.27
2022-12-23T23:56:13.932Z,77.38
2022-12-23T23:58:41.172Z,77.37
